Time;durP1;ratioP1;P1;durP2;ratioP2;P2;SDS_P1;SDS_P2;PMS_P1;PMS_P2;Temp;Humidity;BMP_temperature;BMP_pressure;BME280_temperature;BME280_humidity;BME280_pressure;Samples;Min_cycle;Max_cycle;Signal;HPM_P1;HPM_P2
2023/04/05 00:00:29;;;;;;;5.15;3.10;;;2.10;99.90;;;;;;5056569;28;20045;-82
2023/04/05 00:02:56;;;;;;;5.72;3.63;;;2.40;99.90;;;;;;5055684;28;20103;-82
2023/04/05 00:05:28;;;;;;;7.68;3.13;;;2.30;99.90;;;;;;5058742;28;20083;-82
2023/04/05 00:07:59;;;;;;;9.70;3.42;;;1.70;99.90;;;;;;5054798;28;20127;-81
2023/04/05 00:10:25;;;;;;;5.65;3.03;;;1.60;99.90;;;;;;5050707;28;20049;-81
2023/04/05 00:12:51;;;;;;;5.70;3.40;;;2.20;99.90;;;;;;5059113;28;20431;-81
2023/04/05 00:15:17;;;;;;;5.78;2.95;;;1.60;99.90;;;;;;5056520;28;20044;-81
2023/04/05 00:17:44;;;;;;;5.35;3.05;;;1.60;99.90;;;;;;5050892;28;20040;-80
2023/04/05 00:20:10;;;;;;;5.43;3.22;;;1.60;99.90;;;;;;5058037;28;20040;-81
2023/04/05 00:22:37;;;;;;;7.38;3.50;;;1.60;99.90;;;;;;5055319;28;20048;-80
2023/04/05 00:25:03;;;;;;;5.43;3.15;;;2.10;99.90;;;;;;5053466;28;20045;-80
2023/04/05 00:27:29;;;;;;;5.03;3.25;;;1.50;99.90;;;;;;5054442;28;20420;-80
2023/04/05 00:29:55;;;;;;;6.82;3.47;;;1.50;99.90;;;;;;5064214;28;20115;-80
2023/04/05 00:32:21;;;;;;;7.03;3.40;;;1.50;99.90;;;;;;5064447;28;20048;-80
2023/04/05 00:34:46;;;;;;;6.75;3.15;;;1.40;99.90;;;;;;5063264;28;20044;-80
2023/04/05 00:37:12;;;;;;;5.40;3.05;;;1.40;99.90;;;;;;5068331;28;20052;-80
2023/04/05 00:39:38;;;;;;;5.35;3.20;;;1.30;99.90;;;;;;5068442;28;20040;-80
2023/04/05 00:42:05;;;;;;;6.40;3.58;;;1.40;99.90;;;;;;5063101;28;20041;-80
2023/04/05 00:44:34;;;;;;;6.93;3.70;;;1.20;99.90;;;;;;5055033;28;20040;-80
2023/04/05 00:47:04;;;;;;;7.43;3.85;;;1.60;99.90;;;;;;5053747;28;20045;-80
2023/04/05 00:49:31;;;;;;;8.07;3.78;;;1.20;99.90;;;;;;5069953;28;20041;-80
2023/04/05 00:51:57;;;;;;;6.32;3.60;;;1.50;99.90;;;;;;5069224;28;20040;-80
2023/04/05 00:54:24;;;;;;;6.85;3.50;;;1.20;99.90;;;;;;5071082;28;20041;-81
2023/04/05 00:56:52;;;;;;;6.38;3.33;;;1.20;99.90;;;;;;5069205;28;20063;-81
2023/04/05 00:59:18;;;;;;;4.65;2.92;;;1.20;99.90;;;;;;5067100;28;20105;-81
2023/04/05 01:01:53;;;;;;;4.20;3.17;;;1.10;99.90;;;;;;5067012;28;20596;-81
2023/04/05 01:04:24;;;;;;;4.72;3.22;;;1.60;99.90;;;;;;5060801;28;20094;-81
2023/04/05 01:06:56;;;;;;;5.78;3.00;;;1.00;99.90;;;;;;5070825;28;20040;-82
2023/04/05 01:10:01;;;;;;;6.22;3.28;;;1.00;99.90;;;;;;5065820;28;20162;-82
2023/04/05 01:12:31;;;;;;;5.97;3.30;;;0.90;99.90;;;;;;5063254;28;20501;-82
2023/04/05 01:14:57;;;;;;;10.77;4.13;;;0.90;99.90;;;;;;5068883;28;20549;-83
2023/04/05 01:17:26;;;;;;;5.68;3.65;;;0.90;99.90;;;;;;5072344;28;20041;-82
2023/04/05 01:19:57;;;;;;;5.38;3.60;;;0.90;99.90;;;;;;5042239;28;20037;-84
2023/04/05 01:22:39;;;;;;;6.72;3.45;;;1.00;99.90;;;;;;5067549;28;20501;-83
2023/04/05 01:25:42;;;;;;;6.22;3.80;;;0.80;99.90;;;;;;5061036;28;20045;-83
2023/04/05 01:28:39;;;;;;;6.05;3.55;;;0.80;99.90;;;;;;5062836;28;20045;-83
2023/04/05 01:31:30;;;;;;;7.20;3.53;;;0.70;99.90;;;;;;5048802;28;20045;-83
2023/04/05 01:34:26;;;;;;;6.13;3.47;;;0.70;99.90;;;;;;5054271;28;20040;-84
2023/04/05 01:37:01;;;;;;;6.45;3.88;;;0.70;99.90;;;;;;5072138;28;20056;-83
2023/04/05 01:39:28;;;;;;;6.20;3.72;;;0.70;99.90;;;;;;5069016;28;20051;-83
2023/04/05 01:42:00;;;;;;;6.93;3.90;;;0.60;99.90;;;;;;5043298;28;20089;-83
2023/04/05 01:44:25;;;;;;;5.30;3.33;;;0.60;99.90;;;;;;5063197;28;20094;-83
2023/04/05 01:46:51;;;;;;;6.78;3.90;;;0.90;99.90;;;;;;5046687;28;20492;-82
2023/04/05 01:49:16;;;;;;;5.75;3.35;;;0.50;99.90;;;;;;5048145;28;20495;-82
2023/04/05 01:51:42;;;;;;;6.53;3.72;;;0.90;99.90;;;;;;5066510;28;20045;-82
2023/04/05 01:54:08;;;;;;;6.37;3.73;;;0.50;99.90;;;;;;5063210;28;20053;-82
2023/04/05 01:56:34;;;;;;;7.77;3.97;;;0.50;99.90;;;;;;5042303;28;20139;-82
2023/04/05 01:58:59;;;;;;;5.43;3.47;;;1.10;99.90;;;;;;5063021;28;20123;-82
2023/04/05 02:01:25;;;;;;;6.22;3.80;;;0.50;99.90;;;;;;5072060;28;20040;-82
2023/04/05 02:03:51;;;;;;;7.13;3.90;;;0.50;99.90;;;;;;5057775;28;20036;-82
2023/04/05 02:06:16;;;;;;;6.67;3.90;;;0.70;99.90;;;;;;5058459;28;20037;-82
2023/04/05 02:08:42;;;;;;;7.93;3.87;;;0.50;99.90;;;;;;5047184;28;20115;-82
2023/04/05 02:11:07;;;;;;;7.27;3.97;;;0.50;99.90;;;;;;5066954;28;20090;-82
2023/04/05 02:13:33;;;;;;;5.90;3.67;;;0.40;99.90;;;;;;5059276;28;20037;-82
2023/04/05 02:15:58;;;;;;;7.27;3.70;;;0.40;99.90;;;;;;5064014;28;20143;-81
2023/04/05 02:18:28;;;;;;;6.33;3.80;;;0.40;99.90;;;;;;5065665;28;20120;-81
2023/04/05 02:21:03;;;;;;;6.00;3.70;;;0.40;99.90;;;;;;5068726;28;20060;-81
2023/04/05 02:23:29;;;;;;;8.27;4.40;;;0.40;99.90;;;;;;5065015;28;20033;-81
2023/04/05 02:25:56;;;;;;;6.00;3.53;;;0.40;99.90;;;;;;5065231;28;20056;-81
2023/04/05 02:28:21;;;;;;;7.80;3.70;;;0.40;99.90;;;;;;5075914;28;20036;-81
2023/04/05 02:30:47;;;;;;;6.20;3.63;;;1.10;99.90;;;;;;5068028;28;20147;-81
2023/04/05 02:33:12;;;;;;;6.53;3.60;;;0.30;99.90;;;;;;5069011;28;20098;-80
2023/04/05 02:35:38;;;;;;;4.90;3.50;;;0.20;99.90;;;;;;5064377;28;20419;-80
2023/04/05 02:38:04;;;;;;;7.23;3.93;;;0.20;99.90;;;;;;5074805;28;20041;-80
2023/04/05 02:40:30;;;;;;;6.67;3.90;;;0.10;99.90;;;;;;5067215;28;20433;-80
2023/04/05 02:42:56;;;;;;;7.07;4.00;;;0.10;99.90;;;;;;5070808;28;20036;-81
2023/04/05 02:45:22;;;;;;;8.07;4.40;;;0.10;99.90;;;;;;5071165;28;20090;-81
2023/04/05 02:47:47;;;;;;;5.90;4.00;;;0.10;99.90;;;;;;5073401;28;20042;-80
2023/04/05 02:50:13;;;;;;;6.57;4.27;;;0.10;99.90;;;;;;5073689;28;20037;-80
2023/04/05 02:52:39;;;;;;;7.20;4.07;;;0.10;99.90;;;;;;5063070;28;20045;-80
2023/04/05 02:55:06;;;;;;;7.03;4.00;;;0.10;99.90;;;;;;5076182;28;20037;-81
2023/04/05 02:57:31;;;;;;;8.07;4.50;;;0.10;99.90;;;;;;5066334;28;20067;-80
2023/04/05 02:59:57;;;;;;;8.50;4.00;;;0.80;99.90;;;;;;5059931;28;20033;-80
2023/04/05 03:02:23;;;;;;;9.07;4.33;;;0.10;99.90;;;;;;5070893;28;20500;-80
2023/04/05 03:04:52;;;;;;;6.47;4.30;;;0.10;99.90;;;;;;5069908;28;20033;-80
2023/04/05 03:07:17;;;;;;;7.73;4.53;;;0.10;99.90;;;;;;5072188;28;20103;-81
2023/04/05 03:09:46;;;;;;;8.37;4.60;;;0.00;99.90;;;;;;5071154;28;20044;-81
2023/04/05 03:12:12;;;;;;;6.87;3.93;;;0.10;99.90;;;;;;5064839;28;20076;-81
2023/04/05 03:14:38;;;;;;;11.43;4.50;;;0.00;99.90;;;;;;5070180;28;20102;-81
2023/04/05 03:17:05;;;;;;;6.67;4.37;;;-0.10;99.90;;;;;;5068197;28;20151;-81
2023/04/05 03:19:31;;;;;;;6.43;4.07;;;0.00;99.90;;;;;;5058811;28;20516;-82
2023/04/05 03:21:57;;;;;;;7.63;4.30;;;-0.10;99.90;;;;;;5067744;28;20044;-82
2023/04/05 03:24:23;;;;;;;6.70;3.97;;;0.00;99.90;;;;;;5064063;28;20484;-82
2023/04/05 03:26:49;;;;;;;7.40;4.50;;;0.00;99.90;;;;;;5056639;28;20116;-81
2023/04/05 03:29:15;;;;;;;8.10;4.70;;;0.00;99.90;;;;;;5066349;28;20040;-82
2023/04/05 03:31:41;;;;;;;6.60;4.30;;;0.00;99.90;;;;;;5066584;28;20484;-82
2023/04/05 03:34:06;;;;;;;9.47;4.73;;;0.00;99.90;;;;;;5065289;28;20079;-82
2023/04/05 03:36:40;;;;;;;9.03;4.67;;;-0.10;99.90;;;;;;5055754;28;20080;-82
2023/04/05 03:39:08;;;;;;;5.77;4.00;;;-0.10;99.90;;;;;;5066912;28;20036;-82
2023/04/05 03:41:34;;;;;;;10.83;4.70;;;-0.10;99.90;;;;;;5064422;28;20045;-82
2023/04/05 03:44:00;;;;;;;8.67;4.80;;;-0.10;99.90;;;;;;5069661;28;20059;-82
2023/04/05 03:46:25;;;;;;;9.83;5.63;;;-0.10;99.90;;;;;;5063396;28;20033;-82
2023/04/05 03:48:51;;;;;;;11.83;6.57;;;-0.20;99.90;;;;;;5066678;28;20060;-82
2023/04/05 03:51:17;;;;;;;12.07;6.37;;;-0.20;99.90;;;;;;5067823;28;20408;-83
2023/04/05 03:53:43;;;;;;;11.10;6.20;;;-0.30;99.90;;;;;;5066189;28;20041;-81
2023/04/05 03:56:09;;;;;;;12.30;6.60;;;-0.30;99.90;;;;;;5066134;28;20128;-82
2023/04/05 03:58:35;;;;;;;10.23;5.97;;;-0.40;99.90;;;;;;5058663;28;20037;-82
2023/04/05 04:01:01;;;;;;;8.33;5.33;;;-0.40;99.90;;;;;;5067149;28;20049;-82
2023/04/05 04:03:27;;;;;;;9.03;5.70;;;-0.50;99.90;;;;;;5061787;28;20052;-82
2023/04/05 04:05:55;;;;;;;8.37;5.57;;;-0.50;99.90;;;;;;5069041;28;20072;-82
2023/04/05 04:08:20;;;;;;;11.07;6.03;;;-0.50;99.90;;;;;;5065667;28;20111;-82
2023/04/05 04:10:46;;;;;;;10.87;5.80;;;-0.50;99.90;;;;;;5062709;28;20088;-82
2023/04/05 04:13:11;;;;;;;9.47;6.00;;;-0.50;99.90;;;;;;5064013;28;20048;-83
2023/04/05 04:15:37;;;;;;;8.87;5.23;;;-0.50;99.90;;;;;;5063406;28;20170;-82
2023/04/05 04:18:02;;;;;;;7.70;5.27;;;-0.50;99.90;;;;;;5065794;28;20428;-82
2023/04/05 04:20:28;;;;;;;10.67;6.10;;;-0.50;99.90;;;;;;5065483;28;20106;-83
2023/04/05 04:22:55;;;;;;;9.53;5.97;;;-0.50;99.90;;;;;;5055435;28;20041;-83
2023/04/05 04:25:21;;;;;;;10.00;5.83;;;-0.60;99.90;;;;;;5067608;28;20045;-83
2023/04/05 04:27:46;;;;;;;11.07;6.33;;;-0.70;99.90;;;;;;5053127;28;20535;-83
2023/04/05 04:30:13;;;;;;;11.33;6.70;;;-0.70;99.90;;;;;;5064058;28;20037;-82
2023/04/05 04:32:56;;;;;;;10.03;5.70;;;-0.70;99.90;;;;;;5065772;28;20768;-83
2023/04/05 04:35:26;;;;;;;12.20;6.17;;;-0.70;99.90;;;;;;5066377;28;20032;-83
2023/04/05 04:37:58;;;;;;;9.90;5.30;;;-0.70;99.90;;;;;;5060013;28;20040;-83
2023/04/05 04:40:49;;;;;;;9.47;6.00;;;-0.70;99.90;;;;;;5057450;28;20098;-83
2023/04/05 04:43:18;;;;;;;13.63;6.50;;;-0.80;99.90;;;;;;5053824;28;20041;-83
2023/04/05 04:45:48;;;;;;;12.33;7.17;;;-0.80;99.90;;;;;;5068252;28;20032;-83
2023/04/05 04:48:15;;;;;;;11.03;6.60;;;-0.80;99.90;;;;;;5067100;28;20389;-83
2023/04/05 04:50:42;;;;;;;10.57;6.40;;;-0.80;99.90;;;;;;5057272;28;20069;-83
2023/04/05 04:53:08;;;;;;;10.50;6.20;;;-0.70;99.90;;;;;;5066007;28;20447;-82
2023/04/05 04:55:35;;;;;;;9.80;6.13;;;-0.40;99.90;;;;;;5067056;28;20037;-83
2023/04/05 04:58:08;;;;;;;10.63;6.57;;;-0.80;99.90;;;;;;5064692;28;20052;-83
2023/04/05 05:00:34;;;;;;;9.43;6.03;;;-0.80;99.90;;;;;;5063483;28;20099;-83
2023/04/05 05:03:00;;;;;;;10.77;5.97;;;-0.80;99.90;;;;;;5061570;28;20041;-82
2023/04/05 05:05:26;;;;;;;13.03;6.17;;;-0.80;99.90;;;;;;5050581;28;20071;-82
2023/04/05 05:07:52;;;;;;;10.27;6.43;;;-0.80;99.90;;;;;;5060330;28;20085;-82
2023/04/05 05:10:18;;;;;;;10.80;6.60;;;-0.80;99.90;;;;;;5063926;28;20043;-83
2023/04/05 05:12:44;;;;;;;12.17;6.73;;;-0.90;99.90;;;;;;5067830;28;20041;-82
2023/04/05 05:15:10;;;;;;;11.63;7.07;;;-0.90;99.90;;;;;;5068618;28;20037;-82
2023/04/05 05:17:36;;;;;;;8.93;6.53;;;-0.90;99.90;;;;;;5066915;28;20048;-82
2023/04/05 05:20:08;;;;;;;10.37;6.63;;;-0.30;99.90;;;;;;5051541;28;20041;-82
2023/04/05 05:22:35;;;;;;;9.67;6.37;;;-0.90;99.90;;;;;;5051770;28;20041;-82
2023/04/05 05:25:00;;;;;;;14.00;7.57;;;-0.10;99.90;;;;;;5062554;28;20044;-82
2023/04/05 05:27:27;;;;;;;12.60;7.03;;;-0.80;99.90;;;;;;5063577;28;20044;-82
2023/04/05 05:29:52;;;;;;;11.30;6.90;;;-0.80;99.90;;;;;;5062684;28;20098;-82
2023/04/05 05:32:18;;;;;;;11.33;6.53;;;-0.80;99.90;;;;;;5067383;28;20399;-82
2023/04/05 05:34:44;;;;;;;12.17;7.20;;;-0.80;99.90;;;;;;5066522;28;20067;-82
2023/04/05 05:37:11;;;;;;;12.77;7.27;;;-0.70;99.90;;;;;;5061732;28;20049;-81
2023/04/05 05:39:37;;;;;;;14.17;8.83;;;-0.60;99.90;;;;;;5057373;28;20069;-82
2023/04/05 05:42:02;;;;;;;13.97;8.20;;;-0.50;99.90;;;;;;5059319;28;20068;-82
2023/04/05 05:44:29;;;;;;;14.23;7.87;;;-0.40;99.90;;;;;;5064058;28;20033;-82
2023/04/05 05:46:55;;;;;;;16.17;8.40;;;-0.30;99.90;;;;;;5068704;28;20044;-81
2023/04/05 05:49:22;;;;;;;14.13;7.20;;;-0.20;99.90;;;;;;5074978;28;20048;-81
2023/04/05 05:51:48;;;;;;;11.73;7.47;;;-0.10;99.90;;;;;;5070550;28;20049;-82
2023/04/05 05:54:13;;;;;;;13.23;8.30;;;0.10;99.90;;;;;;5066499;28;20044;-81
2023/04/05 05:56:39;;;;;;;14.30;8.40;;;0.00;99.90;;;;;;5061815;28;20049;-81
2023/04/05 05:59:05;;;;;;;15.70;9.60;;;0.10;99.90;;;;;;5072560;28;20055;-81
2023/04/05 06:01:33;;;;;;;15.13;8.90;;;0.10;99.90;;;;;;5073451;28;20564;-81
2023/04/05 06:03:59;;;;;;;16.60;9.20;;;0.60;99.90;;;;;;5059645;28;20041;-80
2023/04/05 06:06:25;;;;;;;14.97;8.97;;;0.20;99.90;;;;;;5073384;28;20132;-82
2023/04/05 06:08:51;;;;;;;14.97;9.20;;;0.30;99.90;;;;;;5050256;28;20055;-80
2023/04/05 06:11:21;;;;;;;15.87;9.30;;;0.40;99.90;;;;;;5069990;28;20028;-80
2023/04/05 06:13:48;;;;;;;15.57;10.03;;;0.60;99.90;;;;;;5071329;28;20037;-80
2023/04/05 06:16:13;;;;;;;16.27;9.60;;;0.70;99.90;;;;;;5069800;28;20087;-79
2023/04/05 06:18:39;;;;;;;14.77;9.70;;;0.80;99.90;;;;;;5071088;28;20095;-78
2023/04/05 06:21:05;;;;;;;14.17;10.20;;;0.80;99.90;;;;;;5060152;28;20067;-78
2023/04/05 06:23:30;;;;;;;18.27;10.37;;;1.00;99.90;;;;;;5066961;28;20045;-77
2023/04/05 06:25:56;;;;;;;14.20;9.40;;;1.80;99.90;;;;;;5069396;28;20119;-77
2023/04/05 06:28:21;;;;;;;15.50;9.40;;;1.60;99.90;;;;;;5072700;28;20068;-77
2023/04/05 06:30:47;;;;;;;16.40;10.03;;;2.00;99.90;;;;;;5071988;28;20120;-77
2023/04/05 06:33:13;;;;;;;16.43;10.60;;;1.80;99.90;;;;;;5066875;28;20098;-77
2023/04/05 06:35:39;;;;;;;14.70;9.63;;;2.10;99.90;;;;;;5063491;28;20036;-78
2023/04/05 06:38:04;;;;;;;17.50;11.03;;;2.20;99.90;;;;;;5069511;28;20504;-77
2023/04/05 06:40:30;;;;;;;19.07;10.70;;;2.20;99.90;;;;;;5067539;28;20105;-78
2023/04/05 06:42:56;;;;;;;16.57;10.43;;;1.70;99.90;;;;;;5065956;28;20076;-79
2023/04/05 06:45:21;;;;;;;14.30;9.23;;;2.30;99.90;;;;;;5052541;28;20075;-79
2023/04/05 06:47:48;;;;;;;14.80;9.53;;;2.30;99.90;;;;;;5069799;28;20045;-79
2023/04/05 06:50:13;;;;;;;14.93;10.30;;;2.40;99.90;;;;;;5069445;28;20097;-79
2023/04/05 06:52:39;;;;;;;15.47;9.97;;;2.30;99.90;;;;;;5069034;28;20056;-78
2023/04/05 06:55:05;;;;;;;15.50;9.67;;;2.30;99.90;;;;;;5064933;28;20051;-77
2023/04/05 06:57:30;;;;;;;16.05;10.45;;;2.30;99.90;;;;;;5071610;28;20408;-79
2023/04/05 06:59:56;;;;;;;16.70;10.93;;;2.40;99.90;;;;;;5069717;28;20043;-80
2023/04/05 07:02:21;;;;;;;17.20;10.73;;;2.60;99.90;;;;;;5051709;28;20045;-79
2023/04/05 07:04:47;;;;;;;14.53;10.37;;;2.70;99.90;;;;;;5068219;28;20041;-79
2023/04/05 07:07:13;;;;;;;17.10;10.53;;;3.20;99.90;;;;;;5071065;28;20032;-80
2023/04/05 07:09:39;;;;;;;17.17;10.40;;;2.90;99.90;;;;;;5067583;28;20133;-80
2023/04/05 07:12:06;;;;;;;16.53;11.17;;;3.60;99.90;;;;;;5060591;28;20587;-79
2023/04/05 07:14:33;;;;;;;16.17;10.70;;;3.10;99.90;;;;;;5062741;28;20076;-79
2023/04/05 07:16:59;;;;;;;15.10;10.25;;;3.20;99.90;;;;;;5066712;28;20056;-79
2023/04/05 07:19:25;;;;;;;14.88;10.25;;;3.30;99.90;;;;;;5065909;28;20040;-79
2023/04/05 07:21:51;;;;;;;16.77;10.52;;;3.50;99.90;;;;;;5068459;28;20098;-80
2023/04/05 07:24:17;;;;;;;13.13;9.50;;;3.80;99.90;;;;;;5063949;28;20063;-81
2023/04/05 07:26:43;;;;;;;19.35;11.02;;;3.80;99.90;;;;;;5065825;28;20041;-75
2023/04/05 07:29:09;;;;;;;15.20;9.52;;;3.90;99.90;;;;;;5069277;28;20048;-77
2023/04/05 07:31:35;;;;;;;16.00;10.32;;;4.10;99.90;;;;;;5061834;28;20545;-78
2023/04/05 07:34:01;;;;;;;13.52;10.20;;;4.30;99.90;;;;;;5066057;28;20041;-77
2023/04/05 07:36:29;;;;;;;16.85;10.48;;;4.50;99.90;;;;;;5065784;28;20063;-76
2023/04/05 07:38:58;;;;;;;15.35;10.05;;;4.70;99.90;;;;;;5062445;28;20067;-75
2023/04/05 07:41:24;;;;;;;13.40;10.05;;;4.80;99.90;;;;;;5064746;28;20518;-76
2023/04/05 07:43:50;;;;;;;13.57;9.52;;;5.00;99.90;;;;;;5061893;28;20660;-77
2023/04/05 07:46:16;;;;;;;12.20;9.10;;;5.10;99.90;;;;;;5066619;28;20196;-79
2023/04/05 07:48:41;;;;;;;12.75;9.40;;;5.30;99.90;;;;;;5065526;28;20040;-78
2023/04/05 07:51:09;;;;;;;12.85;9.45;;;5.40;99.90;;;;;;5069010;28;20033;-79
2023/04/05 07:53:35;;;;;;;13.98;9.02;;;5.50;99.90;;;;;;5053847;28;20094;-77
2023/04/05 07:56:08;;;;;;;12.27;9.00;;;5.60;99.90;;;;;;5068483;28;20119;-78
2023/04/05 07:58:35;;;;;;;12.03;9.07;;;5.70;99.90;;;;;;5052137;28;20152;-76
2023/04/05 08:01:01;;;;;;;10.35;8.43;;;5.80;99.90;;;;;;5067142;28;20047;-76
2023/04/05 08:03:28;;;;;;;10.50;8.48;;;6.00;99.90;;;;;;5065165;28;20047;-76
2023/04/05 08:05:53;;;;;;;11.82;8.55;;;6.10;99.90;;;;;;5062309;28;20041;-73
2023/04/05 08:08:20;;;;;;;11.38;8.18;;;6.20;99.90;;;;;;5062048;28;20604;-77
2023/04/05 08:10:45;;;;;;;11.38;7.78;;;6.40;99.90;;;;;;5064707;28;20044;-77
2023/04/05 08:13:11;;;;;;;9.52;7.70;;;6.50;99.90;;;;;;5059486;28;20133;-77
2023/04/05 08:15:37;;;;;;;11.70;7.50;;;6.60;99.90;;;;;;5058082;28;20044;-77
2023/04/05 08:18:02;;;;;;;12.75;8.00;;;6.70;99.90;;;;;;5067938;28;20071;-77
2023/04/05 08:20:28;;;;;;;12.93;7.68;;;6.90;99.90;;;;;;5061472;28;20036;-76
2023/04/05 08:22:53;;;;;;;9.75;6.85;;;7.00;99.90;;;;;;5060727;28;20111;-77
2023/04/05 08:25:19;;;;;;;11.80;7.22;;;7.10;99.90;;;;;;5066895;28;20037;-77
2023/04/05 08:27:44;;;;;;;9.85;7.15;;;7.20;99.90;;;;;;5065220;28;20123;-77
2023/04/05 08:30:10;;;;;;;10.00;6.90;;;7.40;99.90;;;;;;5062423;28;20556;-75
2023/04/05 08:32:36;;;;;;;9.40;7.00;;;7.50;99.90;;;;;;5066854;28;20131;-76
2023/04/05 08:35:02;;;;;;;11.77;6.63;;;7.60;99.90;;;;;;5064223;28;20040;-77
2023/04/05 08:37:27;;;;;;;9.07;6.00;;;7.60;99.90;;;;;;5059618;28;20041;-76
2023/04/05 08:39:53;;;;;;;10.18;5.85;;;7.80;99.90;;;;;;5068668;28;20457;-82
2023/04/05 08:42:28;;;;;;;10.73;6.18;;;7.80;99.90;;;;;;5068261;28;20051;-83
2023/04/05 08:44:56;;;;;;;7.78;5.40;;;7.90;99.90;;;;;;5062714;28;20037;-82
2023/04/05 08:47:22;;;;;;;7.82;5.85;;;8.00;99.90;;;;;;5070346;28;20092;-82
2023/04/05 08:49:48;;;;;;;9.52;5.50;;;8.20;99.90;;;;;;5053187;28;20132;-79
2023/04/05 08:52:14;;;;;;;9.32;5.97;;;8.30;99.90;;;;;;5064484;28;20037;-81
2023/04/05 08:54:40;;;;;;;8.80;5.20;;;8.40;99.90;;;;;;5055897;28;20059;-82
2023/04/05 08:57:07;;;;;;;9.05;5.80;;;8.50;99.90;;;;;;5054232;28;20049;-82
2023/04/05 08:59:37;;;;;;;7.45;5.55;;;8.60;99.90;;;;;;5051240;28;20033;-82
2023/04/05 09:02:16;;;;;;;6.97;5.35;;;8.70;99.90;;;;;;5055206;28;20126;-82
2023/04/05 09:04:43;;;;;;;8.25;5.70;;;8.80;99.90;;;;;;5057601;28;20048;-82
2023/04/05 09:07:12;;;;;;;10.07;6.03;;;8.80;99.90;;;;;;5054723;28;20076;-81
2023/04/05 09:09:38;;;;;;;7.75;5.40;;;8.90;99.90;;;;;;5056836;28;20084;-82
2023/04/05 09:12:06;;;;;;;8.15;5.07;;;8.90;99.90;;;;;;5063681;28;20055;-82
2023/04/05 09:14:33;;;;;;;7.40;5.15;;;9.00;99.90;;;;;;5066871;28;20488;-83
2023/04/05 09:17:02;;;;;;;7.45;4.72;;;9.10;99.90;;;;;;5061103;28;20037;-83
2023/04/05 09:19:27;;;;;;;7.57;4.70;;;9.20;99.90;;;;;;5070480;28;20040;-81
2023/04/05 09:22:07;;;;;;;8.88;5.30;;;9.40;99.90;;;;;;5063232;28;20411;-85
2023/04/05 09:24:42;;;;;;;7.43;4.70;;;9.40;99.90;;;;;;5074350;28;20036;-83
2023/04/05 09:27:15;;;;;;;6.57;4.57;;;9.50;99.90;;;;;;5063553;28;20484;-83
2023/04/05 09:29:43;;;;;;;7.70;4.70;;;9.30;99.90;;;;;;5057246;28;20638;-83
2023/04/05 09:32:11;;;;;;;6.93;4.65;;;9.50;99.90;;;;;;5063192;28;20067;-81
2023/04/05 09:34:37;;;;;;;7.20;4.55;;;9.50;99.90;;;;;;5059888;28;20076;-84
2023/04/05 09:37:23;;;;;;;6.90;4.82;;;9.50;99.90;;;;;;5059848;28;20070;-83
2023/04/05 09:39:50;;;;;;;8.60;5.03;;;9.60;99.90;;;;;;5062970;28;20048;-84
2023/04/05 09:42:21;;;;;;;6.72;4.57;;;9.80;99.90;;;;;;5067494;28;20111;-84
2023/04/05 09:44:52;;;;;;;8.57;4.47;;;9.90;99.90;;;;;;5057052;28;20500;-83
2023/04/05 09:47:19;;;;;;;8.50;5.00;;;9.90;99.90;;;;;;5054754;28;20052;-83
2023/04/05 09:49:44;;;;;;;8.50;4.65;;;9.80;99.90;;;;;;5062444;28;20116;-84
2023/04/05 09:52:21;;;;;;;5.78;4.25;;;9.90;99.90;;;;;;5065601;28;20120;-84
2023/04/05 09:54:48;;;;;;;6.80;4.63;;;9.90;99.90;;;;;;5056766;28;20033;-83
2023/04/05 09:57:15;;;;;;;9.15;5.43;;;10.00;99.90;;;;;;5055503;28;20120;-83
2023/04/05 09:59:41;;;;;;;8.57;4.78;;;10.10;99.90;;;;;;5062035;28;20053;-84
2023/04/05 10:02:09;;;;;;;8.60;4.97;;;10.30;99.90;;;;;;5055064;28;20041;-81
2023/04/05 10:04:42;;;;;;;7.57;4.30;;;10.40;99.90;;;;;;5057662;28;20033;-81
2023/04/05 10:07:11;;;;;;;7.72;4.40;;;10.50;99.90;;;;;;5060704;28;20069;-80
2023/04/05 10:09:37;;;;;;;8.15;4.70;;;10.50;99.90;;;;;;5064078;28;20040;-81
2023/04/05 10:12:05;;;;;;;6.00;4.10;;;10.50;99.90;;;;;;5060811;28;20044;-80
2023/04/05 10:14:30;;;;;;;6.97;4.47;;;10.60;99.90;;;;;;5065534;28;20055;-80
2023/04/05 10:17:15;;;;;;;7.35;4.40;;;10.70;99.90;;;;;;5063148;28;20048;-81
2023/04/05 10:19:59;;;;;;;;;;;10.70;99.90;;;;;;5067021;28;20075;-80
2023/04/05 10:22:56;;;;;;;6.28;4.30;;;10.30;99.90;;;;;;5057027;28;19916;-80
2023/04/05 10:25:26;;;;;;;7.47;4.25;;;10.60;99.90;;;;;;5055553;28;20099;-80
2023/04/05 10:27:55;;;;;;;7.22;4.55;;;10.80;99.90;;;;;;5060989;28;20053;-79
2023/04/05 10:30:23;;;;;;;7.90;4.35;;;11.00;99.90;;;;;;5071649;28;20154;-81
2023/04/05 10:33:01;;;;;;;8.15;5.25;;;11.10;99.90;;;;;;5058218;28;20087;-81
2023/04/05 10:35:54;;;;;;;5.97;4.05;;;10.80;96.20;;;;;;5055591;28;20083;-80
2023/04/05 10:38:41;;;;;;;7.80;4.40;;;10.70;99.20;;;;;;5067837;28;20119;-81
2023/04/05 10:41:13;;;;;;;7.22;4.30;;;10.70;99.70;;;;;;5067719;28;20062;-79
2023/04/05 10:43:40;;;;;;;6.28;4.50;;;10.90;99.90;;;;;;5063782;28;20040;-79
2023/04/05 10:46:07;;;;;;;6.70;4.75;;;11.10;99.90;;;;;;5070014;28;20055;-81
2023/04/05 10:48:46;;;;;;;7.10;4.53;;;11.10;99.70;;;;;;5071088;28;20040;-81
2023/04/05 10:51:12;;;;;;;9.43;4.50;;;11.10;99.10;;;;;;5067552;28;20099;-80
2023/04/05 10:53:38;;;;;;;6.35;4.32;;;11.10;99.50;;;;;;5071888;28;20039;-83
2023/04/05 10:56:05;;;;;;;7.93;4.07;;;11.30;99.90;;;;;;5065188;28;20060;-81
2023/04/05 10:58:31;;;;;;;8.00;5.00;;;11.10;99.90;;;;;;5066607;28;20493;-81
2023/04/05 11:00:57;;;;;;;7.05;4.30;;;11.00;99.90;;;;;;5067679;28;20032;-80
2023/04/05 11:03:47;;;;;;;6.30;4.32;;;11.10;99.80;;;;;;5055165;28;20037;-76
2023/04/05 11:06:34;;;;;;;7.38;4.40;;;11.30;99.70;;;;;;5060823;28;20060;-82
2023/04/05 11:09:14;;;;;;;8.05;5.38;;;11.50;99.70;;;;;;5041129;28;20431;-77
2023/04/05 11:11:42;;;;;;;8.48;5.15;;;11.60;98.80;;;;;;5052695;28;20495;-81
2023/04/05 11:14:19;;;;;;;6.22;4.75;;;11.90;99.20;;;;;;5055343;28;20051;-81
2023/04/05 11:16:53;;;;;;;6.72;4.75;;;11.90;97.10;;;;;;5073579;28;20043;-81
2023/04/05 11:19:19;;;;;;;;;;;12.00;97.60;;;;;;5072640;28;20036;-80
2023/04/05 11:21:45;;;;;;;6.63;4.75;;;12.10;96.60;;;;;;5072528;28;19955;-80
2023/04/05 11:24:15;;;;;;;7.55;4.88;;;12.00;97.00;;;;;;5066979;28;20106;-80
2023/04/05 11:26:47;;;;;;;7.75;4.95;;;12.20;97.20;;;;;;5073900;28;20123;-80
2023/04/05 11:29:14;;;;;;;8.43;4.90;;;12.40;97.10;;;;;;5073136;28;20170;-80
2023/04/05 11:32:05;;;;;;;9.70;4.70;;;12.50;96.90;;;;;;5061689;28;20071;-79
2023/04/05 11:34:35;;;;;;;6.53;4.40;;;12.50;95.40;;;;;;5039062;28;20037;-72
2023/04/05 11:37:00;;;;;;;6.03;4.65;;;12.50;94.30;;;;;;5050316;28;20045;-72
2023/04/05 11:39:27;;;;;;;7.03;4.82;;;12.50;95.50;;;;;;5063354;28;20437;-73
2023/04/05 11:42:02;;;;;;;7.25;4.82;;;12.60;95.40;;;;;;5052845;28;20044;-72
2023/04/05 11:44:50;;;;;;;6.45;4.80;;;12.40;93.60;;;;;;5066839;28;20036;-72
2023/04/05 11:47:17;;;;;;;7.38;4.68;;;12.50;94.20;;;;;;5058317;28;20063;-73
2023/04/05 11:49:42;;;;;;;7.85;4.68;;;12.70;94.40;;;;;;5067232;28;20044;-72
2023/04/05 11:52:15;;;;;;;6.57;4.85;;;12.80;94.50;;;;;;5070025;28;20048;-72
2023/04/05 11:54:45;;;;;;;7.55;5.10;;;12.90;94.10;;;;;;5069451;28;20079;-72
2023/04/05 11:57:23;;;;;;;6.80;4.55;;;13.10;95.10;;;;;;5056162;28;20044;-72
2023/04/05 11:59:51;;;;;;;6.18;4.40;;;13.30;94.40;;;;;;5051906;28;20532;-72
2023/04/05 12:02:16;;;;;;;6.35;3.95;;;13.50;95.00;;;;;;5052743;28;20044;-73
2023/04/05 12:04:42;;;;;;;6.93;4.25;;;13.50;91.10;;;;;;5055129;28;20041;-72
2023/04/05 12:07:19;;;;;;;5.90;4.70;;;13.40;93.00;;;;;;5055815;28;20040;-72
2023/04/05 12:10:08;;;;;;;6.97;4.45;;;13.30;93.50;;;;;;5050855;28;20076;-72
2023/04/05 12:12:39;;;;;;;7.82;4.57;;;12.80;91.00;;;;;;5066247;28;20558;-72
2023/04/05 12:15:07;;;;;;;5.40;4.22;;;13.10;93.80;;;;;;5066136;28;20082;-72
2023/04/05 12:17:48;;;;;;;6.95;4.40;;;13.30;94.00;;;;;;5062170;28;20084;-72
2023/04/05 12:20:16;;;;;;;6.93;4.00;;;13.40;93.10;;;;;;5054322;28;20040;-72
2023/04/05 12:22:43;;;;;;;6.18;4.20;;;13.10;92.70;;;;;;5062375;28;20094;-72
2023/04/05 12:25:09;;;;;;;6.32;4.15;;;13.30;92.70;;;;;;5056001;28;20094;-72
2023/04/05 12:27:35;;;;;;;5.97;3.97;;;13.10;92.30;;;;;;5053698;28;20040;-73
2023/04/05 12:30:05;;;;;;;6.00;4.40;;;12.70;91.90;;;;;;5057263;28;20416;-72
2023/04/05 12:32:49;;;;;;;8.55;4.15;;;12.80;92.00;;;;;;5060495;28;20079;-72
2023/04/05 12:35:17;;;;;;;6.30;4.45;;;12.80;91.80;;;;;;5049502;28;20045;-72
2023/04/05 12:37:43;;;;;;;6.05;4.45;;;13.10;91.80;;;;;;5046728;28;20056;-72
2023/04/05 12:40:09;;;;;;;7.78;4.43;;;13.10;88.10;;;;;;5062738;28;20040;-72
2023/04/05 12:42:36;;;;;;;6.28;4.30;;;13.30;90.70;;;;;;5064220;28;20041;-73
2023/04/05 12:45:12;;;;;;;5.40;3.95;;;13.60;91.30;;;;;;5067559;28;20048;-71
2023/04/05 12:47:56;;;;;;;5.38;4.30;;;13.80;91.10;;;;;;5068510;28;20120;-72
2023/04/05 12:50:30;;;;;;;5.13;3.85;;;14.20;90.30;;;;;;5072872;28;20037;-72
2023/04/05 12:52:58;;;;;;;6.32;4.22;;;14.30;91.00;;;;;;5071273;28;20408;-79
2023/04/05 12:55:24;;;;;;;5.72;4.03;;;14.30;90.80;;;;;;5072806;28;20512;-84